Time;durP1;ratioP1;P1;durP2;ratioP2;P2;SDS_P1;SDS_P2;PMS_P1;PMS_P2;Temp;Humidity;BMP_temperature;BMP_pressure;BME280_temperature;BME280_humidity;BME280_pressure;Samples;Min_cycle;Max_cycle;Signal;HPM_P1;HPM_P2
2023/01/01 00:02:06;;;;;;;;;;;;;;;2.29;86.67;96672.09;5036351;28;974;-46
2023/01/01 00:04:33;;;;;;;;;;;;;;;2.18;86.90;96656.75;5036202;28;958;-46
2023/01/01 00:06:59;;;;;;;;;;;;;;;2.02;89.10;96669.81;5036164;28;1051;-46
2023/01/01 00:12:10;;;;;;;;;;;;;;;2.18;89.29;96683.13;5036299;28;947;-46
2023/01/01 00:14:38;;;;;;;;;;;;;;;2.37;87.72;96693.69;5035946;28;1107;-46
2023/01/01 00:17:04;;;;;;;;;;;;;;;2.53;87.93;96689.38;5035908;28;1993;-46
2023/01/01 00:19:30;;;;;;;;;;;;;;;2.58;87.96;96696.22;5035680;28;1094;-46
2023/01/01 00:21:56;;;;;;;;;;;;;;;2.48;86.23;96696.66;5035510;28;1029;-46
2023/01/01 00:24:22;;;;;;;;;;;;;;;2.25;85.45;96710.97;5035842;28;1557;-46
2023/01/01 00:26:48;;;;;;;;;;;;;;;2.07;86.18;96699.50;5035989;28;982;-46
2023/01/01 00:29:14;;;;;;;;;;;;;;;2.09;87.23;96697.63;5034744;28;962;-46
2023/01/01 00:31:40;;;;;;;;;;;;;;;1.94;86.56;96699.19;5035584;28;1012;-46
2023/01/01 00:34:08;;;;;;;;;;;;;;;1.80;87.18;96703.38;5035574;28;1019;-46
2023/01/01 00:36:34;;;;;;;;;;;;;;;1.68;87.92;96696.91;5034559;28;1906;-46
2023/01/01 00:39:01;;;;;;;;;;;;;;;1.71;87.12;96708.16;5035508;28;1056;-46
2023/01/01 00:41:27;;;;;;;;;;;;;;;1.66;87.13;96707.50;5035401;28;1009;-46
2023/01/01 00:43:53;;;;;;;;;;;;;;;1.69;87.28;96712.66;5035613;28;1033;-46
2023/01/01 00:46:19;;;;;;;;;;;;;;;1.82;90.60;96714.72;5035420;28;1001;-46
2023/01/01 00:48:45;;;;;;;;;;;;;;;1.90;91.27;96710.81;5035366;28;1069;-46
2023/01/01 00:51:11;;;;;;;;;;;;;;;2.05;88.14;96716.31;5035301;28;994;-46
2023/01/01 00:53:37;;;;;;;;;;;;;;;2.05;87.06;96711.03;5035446;28;972;-46
2023/01/01 00:56:04;;;;;;;;;;;;;;;1.85;86.39;96717.22;5035168;28;1989;-46
2023/01/01 00:58:30;;;;;;;;;;;;;;;1.66;87.80;96719.84;5035251;28;962;-46
2023/01/01 01:00:56;;;;;;;;;;;;;;;1.65;87.67;96720.75;5035147;28;1100;-46
2023/01/01 01:03:28;;;;;;;;;;;;;;;1.80;87.71;96716.56;5035053;28;1032;-46
2023/01/01 01:05:55;;;;;;;;;;;;;;;1.87;87.35;96707.47;5035335;28;970;-46
2023/01/01 01:08:21;;;;;;;;;;;;;;;1.79;86.64;96714.88;5035110;28;1057;-46
2023/01/01 01:10:47;;;;;;;;;;;;;;;1.64;86.91;96713.78;5033935;28;977;-46
2023/01/01 01:13:13;;;;;;;;;;;;;;;1.46;88.19;96716.31;5035026;28;1045;-46
2023/01/01 01:15:39;;;;;;;;;;;;;;;1.65;88.42;96720.75;5034716;28;1918;-46
2023/01/01 01:18:05;;;;;;;;;;;;;;;1.65;86.88;96716.34;5034576;28;1114;-46
2023/01/01 01:20:31;;;;;;;;;;;;;;;1.54;88.28;96713.34;5034977;28;970;-46
2023/01/01 01:22:57;;;;;;;;;;;;;;;1.66;88.67;96718.06;5034860;28;964;-46
2023/01/01 01:25:23;;;;;;;;;;;;;;;1.74;87.49;96733.53;5034609;28;1442;-46
2023/01/01 01:27:49;;;;;;;;;;;;;;;1.75;86.61;96727.34;5034756;28;960;-46
2023/01/01 01:30:15;;;;;;;;;;;;;;;1.63;86.07;96725.25;5034618;28;1004;-46
2023/01/01 01:32:41;;;;;;;;;;;;;;;1.51;86.58;96722.22;5033657;28;1024;-46
2023/01/01 01:35:08;;;;;;;;;;;;;;;1.47;86.85;96719.78;5034733;28;1065;-46
2023/01/01 01:37:34;;;;;;;;;;;;;;;1.50;87.02;96715.25;5034220;28;1910;-46
2023/01/01 01:40:00;;;;;;;;;;;;;;;1.58;87.61;96699.09;5034445;28;1059;-46
2023/01/01 01:42:26;;;;;;;;;;;;;;;1.68;87.17;96705.66;5034273;28;1048;-45
2023/01/01 01:44:57;;;;;;;;;;;;;;;1.78;87.02;96706.09;5034317;28;1040;-46
2023/01/01 01:47:23;;;;;;;;;;;;;;;1.70;86.90;96695.03;5034274;28;961;-46
2023/01/01 01:49:52;;;;;;;;;;;;;;;1.66;87.91;96702.22;5034418;28;1091;-46
2023/01/01 01:52:19;;;;;;;;;;;;;;;1.62;88.21;96700.66;5034094;28;1134;-46
2023/01/01 01:54:45;;;;;;;;;;;;;;;1.63;87.55;96705.03;5034131;28;1028;-46
2023/01/01 01:57:12;;;;;;;;;;;;;;;1.65;88.07;96702.28;5034163;28;1906;-46
2023/01/01 01:59:41;;;;;;;;;;;;;;;1.74;88.12;96702.72;5033986;28;1033;-46
2023/01/01 02:02:13;;;;;;;;;;;;;;;1.83;87.54;96700.63;5033957;28;1008;-46
2023/01/01 02:04:40;;;;;;;;;;;;;;;1.87;87.11;96704.81;5034119;28;992;-46
2023/01/01 02:07:06;;;;;;;;;;;;;;;1.79;86.75;96702.53;5033955;28;1857;-46
2023/01/01 02:09:33;;;;;;;;;;;;;;;1.54;86.38;96703.63;5033930;28;1043;-46
2023/01/01 02:11:59;;;;;;;;;;;;;;;1.45;86.90;96693.50;5033988;28;1053;-46
2023/01/01 02:14:25;;;;;;;;;;;;;;;1.36;86.89;96692.09;5033711;28;1038;-46
2023/01/01 02:16:55;;;;;;;;;;;;;;;1.38;87.78;96707.00;5033634;28;1977;-46
2023/01/01 02:19:30;;;;;;;;;;;;;;;1.49;88.25;96702.97;5033592;28;1259;-46
2023/01/01 02:22:12;;;;;;;;;;;;;;;1.59;87.63;96711.34;5033843;28;1008;-46
2023/01/01 02:24:56;;;;;;;;;;;;;;;1.70;85.92;96708.22;5033516;28;1184;-46
2023/01/01 02:27:38;;;;;;;;;;;;;;;1.68;86.63;96704.81;5033494;28;1021;-46
2023/01/01 02:30:06;;;;;;;;;;;;;;;1.58;87.62;96707.00;5033721;28;1038;-46
2023/01/01 02:32:38;;;;;;;;;;;;;;;1.46;88.47;96703.13;5033562;28;1058;-46
2023/01/01 02:37:58;;;;;;;;;;;;;;;1.69;87.08;96704.75;5033789;28;976;-46
2023/01/01 02:40:25;;;;;;;;;;;;;;;1.64;86.76;96709.34;5033543;28;1057;-46
2023/01/01 02:42:52;;;;;;;;;;;;;;;1.42;87.22;96705.94;5033505;28;1051;-46
2023/01/01 02:45:18;;;;;;;;;;;;;;;1.41;87.56;96713.00;5033335;28;1064;-46
2023/01/01 02:47:44;;;;;;;;;;;;;;;1.42;87.07;96709.44;5033431;28;1019;-46
2023/01/01 02:50:12;;;;;;;;;;;;;;;1.43;87.15;96719.06;5033309;28;985;-46
2023/01/01 02:52:57;;;;;;;;;;;;;;;1.19;87.29;96712.22;5033474;28;963;-46
2023/01/01 02:55:38;;;;;;;;;;;;;;;1.07;87.93;96713.59;5033123;28;2001;-46
2023/01/01 03:01:12;;;;;;;;;;;;;;;1.28;87.36;96719.75;5061858;28;1477;-47
2023/01/01 03:03:46;;;;;;;;;;;;;;;1.24;86.86;96712.88;5072859;28;1211;-46
2023/01/01 03:06:21;;;;;;;;;;;;;;;1.27;86.80;96716.25;5073185;28;1029;-46
2023/01/01 03:08:47;;;;;;;;;;;;;;;1.11;86.84;96726.56;5073122;28;1021;-46
2023/01/01 03:11:15;;;;;;;;;;;;;;;1.16;87.11;96721.13;5072999;28;1066;-46
2023/01/01 03:13:46;;;;;;;;;;;;;;;1.17;86.70;96722.81;5073102;28;1158;-46
2023/01/01 03:16:18;;;;;;;;;;;;;;;1.06;86.56;96728.53;5072910;28;1918;-46
2023/01/01 03:18:47;;;;;;;;;;;;;;;1.07;86.32;96732.06;5073055;28;1036;-46
2023/01/01 03:21:16;;;;;;;;;;;;;;;1.13;86.67;96729.16;5072888;28;1008;-46
2023/01/01 03:23:46;;;;;;;;;;;;;;;1.17;86.12;96733.34;5071614;28;1444;-46
2023/01/01 03:26:13;;;;;;;;;;;;;;;1.14;86.15;96725.59;5073303;28;965;-46
2023/01/01 03:28:43;;;;;;;;;;;;;;;1.12;87.02;96732.69;5072945;28;1034;-46
2023/01/01 03:31:12;;;;;;;;;;;;;;;1.12;87.50;96727.41;5055012;28;1012;-45
2023/01/01 03:33:43;;;;;;;;;;;;;;;1.16;87.08;96721.13;5072690;28;1020;-46
2023/01/01 03:36:11;;;;;;;;;;;;;;;1.20;86.49;96725.34;5072645;28;1999;-46
2023/01/01 03:38:49;;;;;;;;;;;;;;;1.13;86.49;96716.81;5072829;28;946;-46
2023/01/01 03:41:41;;;;;;;;;;;;;;;1.14;86.22;96713.28;5072858;28;1033;-46
2023/01/01 03:44:20;;;;;;;;;;;;;;;1.10;86.61;96714.34;5069101;28;1164;-46
2023/01/01 03:46:47;;;;;;;;;;;;;;;0.93;86.85;96712.41;5072579;28;1028;-46
2023/01/01 03:49:13;;;;;;;;;;;;;;;0.84;87.38;96715.41;5072595;28;1122;-46
2023/01/01 03:51:58;;;;;;;;;;;;;;;0.86;87.44;96718.00;5072683;28;1003;-46
2023/01/01 03:54:43;;;;;;;;;;;;;;;0.90;86.90;96712.53;5072597;28;1015;-46
2023/01/01 03:57:19;;;;;;;;;;;;;;;0.90;87.16;96717.78;5074675;28;2005;-46
2023/01/01 04:00:06;;;;;;;;;;;;;;;0.93;87.94;96720.31;5076152;28;1024;-46
2023/01/01 04:02:39;;;;;;;;;;;;;;;0.91;86.80;96721.28;5075770;28;1961;-46
2023/01/01 04:05:06;;;;;;;;;;;;;;;0.86;85.87;96718.00;5076160;28;1035;-46
2023/01/01 04:07:32;;;;;;;;;;;;;;;0.71;84.87;96722.13;5075861;28;1099;-46
2023/01/01 04:10:00;;;;;;;;;;;;;;;0.61;83.81;96726.00;5076261;28;981;-46
2023/01/01 04:12:27;;;;;;;;;;;;;;;0.61;86.53;96724.25;5076052;28;1012;-46
2023/01/01 04:14:53;;;;;;;;;;;;;;;0.55;86.13;96732.38;5076056;28;1064;-46
2023/01/01 04:17:19;;;;;;;;;;;;;;;0.42;86.88;96732.03;5075723;28;1918;-46
2023/01/01 04:19:45;;;;;;;;;;;;;;;0.55;86.94;96730.63;5075818;28;1055;-46
2023/01/01 04:22:11;;;;;;;;;;;;;;;0.71;86.79;96727.38;5075742;28;1333;-46
2023/01/01 04:24:37;;;;;;;;;;;;;;;0.72;86.29;96729.06;5075568;28;1942;-46
2023/01/01 04:27:03;;;;;;;;;;;;;;;0.70;85.95;96728.28;5075736;28;1057;-46
2023/01/01 04:29:29;;;;;;;;;;;;;;;0.53;86.12;96726.31;5075626;28;969;-46
2023/01/01 04:31:55;;;;;;;;;;;;;;;0.50;88.50;96734.38;5075773;28;986;-46
2023/01/01 04:34:21;;;;;;;;;;;;;;;0.63;88.38;96729.47;5075567;28;952;-46
2023/01/01 04:36:47;;;;;;;;;;;;;;;0.71;87.39;96735.28;5075384;28;2024;-46
2023/01/01 04:39:13;;;;;;;;;;;;;;;0.74;86.14;96736.00;5075481;28;1075;-45
2023/01/01 04:41:39;;;;;;;;;;;;;;;0.75;85.83;96734.22;5075343;28;1819;-46
2023/01/01 04:44:05;;;;;;;;;;;;;;;0.71;85.56;96737.91;5075576;28;1018;-47
2023/01/01 04:46:31;;;;;;;;;;;;;;;0.64;85.56;96739.91;5075320;28;1277;-47
2023/01/01 04:48:57;;;;;;;;;;;;;;;0.61;85.46;96726.91;5075355;28;1190;-46
2023/01/01 04:51:23;;;;;;;;;;;;;;;0.62;85.71;96728.59;5075090;28;1028;-47
2023/01/01 04:53:49;;;;;;;;;;;;;;;0.63;85.08;96732.94;5075210;28;1051;-47
2023/01/01 04:56:17;;;;;;;;;;;;;;;0.57;85.17;96730.56;5073941;28;1992;-46
2023/01/01 04:58:43;;;;;;;;;;;;;;;0.57;84.77;96731.44;5075098;28;1766;-47
2023/01/01 05:01:19;;;;;;;;;;;;;;;0.15;84.22;96721.66;5075205;28;997;-47
2023/01/01 05:03:46;;;;;;;;;;;;;;;-0.14;87.21;96724.53;5075155;28;846;-47
2023/01/01 05:06:12;;;;;;;;;;;;;;;-0.08;86.85;96721.66;5074915;28;966;-47
2023/01/01 05:08:39;;;;;;;;;;;;;;;-0.09;87.34;96733.13;5073862;28;1117;-47
2023/01/01 05:11:16;;;;;;;;;;;;;;;-0.22;88.30;96740.59;5074909;28;1028;-46
2023/01/01 05:13:43;;;;;;;;;;;;;;;-0.29;87.99;96726.81;5074897;28;1029;-46
2023/01/01 05:16:10;;;;;;;;;;;;;;;-0.31;88.20;96735.69;5074744;28;1918;-47
2023/01/01 05:18:36;;;;;;;;;;;;;;;-0.23;88.66;96731.88;5074642;28;970;-46
2023/01/01 05:21:03;;;;;;;;;;;;;;;-0.15;88.78;96730.69;5074650;28;1099;-46
2023/01/01 05:23:30;;;;;;;;;;;;;;;-0.15;88.89;96738.59;5074374;28;1514;-46
2023/01/01 05:25:56;;;;;;;;;;;;;;;-0.26;88.89;96734.59;5074677;28;1045;-46
2023/01/01 05:28:22;;;;;;;;;;;;;;;-0.43;87.88;96731.72;5074432;28;1011;-46
2023/01/01 05:30:49;;;;;;;;;;;;;;;-0.28;87.72;96739.06;5074555;28;1058;-46
2023/01/01 05:33:14;;;;;;;;;;;;;;;-0.24;87.35;96738.03;5074377;28;1037;-46
2023/01/01 05:35:40;;;;;;;;;;;;;;;-0.22;87.90;96743.22;5074131;28;1910;-46
2023/01/01 05:38:06;;;;;;;;;;;;;;;-0.07;87.35;96744.44;5074443;28;986;-46
2023/01/01 05:40:32;;;;;;;;;;;;;;;0.07;86.99;96739.50;5074404;28;1091;-46
2023/01/01 05:42:59;;;;;;;;;;;;;;;0.17;85.82;96740.00;5074266;28;1248;-47
2023/01/01 05:45:25;;;;;;;;;;;;;;;0.25;85.40;96745.84;5074144;28;1871;-47
2023/01/01 05:47:51;;;;;;;;;;;;;;;0.22;85.56;96751.22;5074145;28;973;-46
2023/01/01 05:50:17;;;;;;;;;;;;;;;0.00;83.51;96753.81;5074260;28;984;-46
2023/01/01 05:52:43;;;;;;;;;;;;;;;-0.01;83.74;96752.94;5074194;28;1052;-46
2023/01/01 05:55:09;;;;;;;;;;;;;;;0.01;84.65;96746.78;5074224;28;1276;-47
2023/01/01 05:57:35;;;;;;;;;;;;;;;0.00;85.03;96748.56;5072795;28;1890;-46
2023/01/01 06:00:01;;;;;;;;;;;;;;;-0.01;85.10;96747.69;5073939;28;1035;-46
2023/01/01 06:02:29;;;;;;;;;;;;;;;0.07;85.58;96747.38;5083911;28;1228;-46
2023/01/01 06:04:55;;;;;;;;;;;;;;;-0.03;85.30;96751.28;5094002;28;1191;-46
2023/01/01 06:07:21;;;;;;;;;;;;;;;0.05;85.04;96749.22;5094153;28;950;-46
2023/01/01 06:09:47;;;;;;;;;;;;;;;0.11;84.91;96756.88;5094098;28;991;-46
2023/01/01 06:12:13;;;;;;;;;;;;;;;-0.12;82.41;96762.16;5094040;28;1029;-46
2023/01/01 06:14:39;;;;;;;;;;;;;;;-0.17;83.85;96758.81;5093951;28;1201;-46
2023/01/01 06:17:05;;;;;;;;;;;;;;;-0.16;85.64;96761.41;5093770;28;1991;-46
2023/01/01 06:19:31;;;;;;;;;;;;;;;-0.07;87.80;96758.44;5093565;28;956;-46
2023/01/01 06:21:57;;;;;;;;;;;;;;;0.11;88.50;96762.13;5094030;28;1060;-47
2023/01/01 06:24:23;;;;;;;;;;;;;;;0.28;88.44;96760.66;5093165;28;1458;-47
2023/01/01 06:26:49;;;;;;;;;;;;;;;0.36;88.20;96759.44;5093936;28;1132;-47
2023/01/01 06:29:15;;;;;;;;;;;;;;;0.44;88.25;96764.41;5093875;28;1072;-47
2023/01/01 06:31:41;;;;;;;;;;;;;;;0.29;86.11;96765.00;5093738;28;1312;-46
2023/01/01 06:34:07;;;;;;;;;;;;;;;0.24;87.05;96757.28;5093694;28;1029;-47
2023/01/01 06:36:33;;;;;;;;;;;;;;;0.38;88.05;96762.03;5093674;28;1991;-46
2023/01/01 06:39:00;;;;;;;;;;;;;;;0.67;87.44;96760.88;5093759;28;966;-46
2023/01/01 06:41:26;;;;;;;;;;;;;;;1.02;86.07;96769.09;5093717;28;1303;-47
2023/01/01 06:43:56;;;;;;;;;;;;;;;1.49;83.64;96770.66;5075757;28;1057;-47
2023/01/01 06:46:22;;;;;;;;;;;;;;;2.07;80.46;96759.34;5093449;28;1072;-46
2023/01/01 06:48:49;;;;;;;;;;;;;;;3.10;74.81;96775.59;5093543;28;1090;-47
2023/01/01 06:51:18;;;;;;;;;;;;;;;3.70;70.98;96770.78;5093744;28;1041;-47
2023/01/01 06:53:44;;;;;;;;;;;;;;;3.95;70.30;96771.31;5093631;28;989;-47
2023/01/01 06:56:10;;;;;;;;;;;;;;;3.97;70.46;96774.72;5093541;28;1906;-47
2023/01/01 06:58:36;;;;;;;;;;;;;;;4.22;69.69;96769.81;5093298;28;1005;-47
2023/01/01 07:01:08;;;;;;;;;;;;;;;5.92;64.56;96774.31;5075401;28;1028;-47
2023/01/01 07:03:34;;;;;;;;;;;;;;;8.08;57.16;96781.72;5093268;28;1076;-48
2023/01/01 07:06:00;;;;;;;;;;;;;;;8.60;53.82;96783.44;5109061;28;1091;-48
2023/01/01 07:08:26;;;;;;;;;;;;;;;9.04;52.83;96787.38;5093260;28;1118;-48
2023/01/01 07:10:52;;;;;;;;;;;;;;;9.96;50.54;96783.19;5093246;28;1016;-48
2023/01/01 07:13:18;;;;;;;;;;;;;;;9.55;51.06;96791.66;5093274;28;992;-48
2023/01/01 07:15:44;;;;;;;;;;;;;;;7.81;55.34;96774.66;5108916;28;1906;-48
2023/01/01 07:18:10;;;;;;;;;;;;;;;5.38;63.59;96776.63;5075607;28;1061;-48
2023/01/01 07:20:36;;;;;;;;;;;;;;;4.44;69.27;96787.19;5093188;28;1032;-47
2023/01/01 07:23:02;;;;;;;;;;;;;;;4.56;69.15;96783.88;5093226;28;1468;-47
2023/01/01 07:25:28;;;;;;;;;;;;;;;5.27;67.27;96791.38;5092892;28;1336;-47
2023/01/01 07:27:54;;;;;;;;;;;;;;;6.47;63.21;96785.16;5093084;28;1086;-47
2023/01/01 07:30:20;;;;;;;;;;;;;;;7.01;61.33;96791.44;5092993;28;1028;-48
2023/01/01 07:32:52;;;;;;;;;;;;;;;7.06;60.78;96784.97;5096676;28;1064;-48
2023/01/01 07:35:18;;;;;;;;;;;;;;;5.58;65.41;96791.41;5097114;28;977;-47
2023/01/01 07:37:44;;;;;;;;;;;;;;;4.94;69.31;96793.31;5096902;28;1993;-47
2023/01/01 07:40:10;;;;;;;;;;;;;;;4.76;70.70;96797.81;5096950;28;1082;-47
2023/01/01 07:42:36;;;;;;;;;;;;;;;4.38;73.48;96785.75;5096801;28;961;-47
2023/01/01 07:45:03;;;;;;;;;;;;;;;4.11;74.46;96794.22;5096905;28;1848;-47
2023/01/01 07:47:29;;;;;;;;;;;;;;;3.80;76.21;96789.69;5096668;28;1091;-47
2023/01/01 07:49:55;;;;;;;;;;;;;;;3.62;77.82;96790.63;5096708;28;1007;-47
2023/01/01 07:52:21;;;;;;;;;;;;;;;3.62;78.23;96795.91;5096729;28;1068;-47
2023/01/01 07:54:47;;;;;;;;;;;;;;;3.56;78.76;96794.44;5096605;28;1864;-47
2023/01/01 07:57:13;;;;;;;;;;;;;;;3.63;79.38;96795.00;5096580;28;1914;-47
2023/01/01 07:59:39;;;;;;;;;;;;;;;3.92;78.12;96796.97;5096419;28;1075;-47
2023/01/01 08:02:05;;;;;;;;;;;;;;;3.99;77.98;96804.63;5096313;28;1088;-47
2023/01/01 08:04:31;;;;;;;;;;;;;;;3.79;79.32;96802.97;5096413;28;1024;-47
2023/01/01 08:06:57;;;;;;;;;;;;;;;3.47;80.83;96806.34;5096560;28;1001;-47
2023/01/01 08:09:24;;;;;;;;;;;;;;;3.51;80.45;96812.34;5096405;28;982;-47
2023/01/01 08:11:52;;;;;;;;;;;;;;;3.38;81.48;96808.56;5095614;28;1835;-47
2023/01/01 08:14:18;;;;;;;;;;;;;;;3.05;82.54;96811.94;5095338;28;1060;-47
2023/01/01 08:16:44;;;;;;;;;;;;;;;2.87;84.25;96821.63;5095938;28;1992;-47
2023/01/01 08:19:11;;;;;;;;;;;;;;;2.93;83.71;96819.53;5095883;28;1051;-47
2023/01/01 08:21:37;;;;;;;;;;;;;;;2.74;84.85;96821.34;5096132;28;1048;-47
2023/01/01 08:24:03;;;;;;;;;;;;;;;2.81;86.10;96814.84;5095551;28;1222;-46
2023/01/01 08:26:31;;;;;;;;;;;;;;;2.89;86.05;96822.41;5095880;28;1004;-47
2023/01/01 08:28:57;;;;;;;;;;;;;;;2.89;86.29;96815.34;5095929;28;1006;-47
2023/01/01 08:31:23;;;;;;;;;;;;;;;2.86;85.11;96818.13;5095866;28;1245;-47
2023/01/01 08:33:50;;;;;;;;;;;;;;;2.66;86.41;96820.88;5095972;28;1177;-47
2023/01/01 08:36:16;;;;;;;;;;;;;;;2.65;86.99;96819.13;5095951;28;1910;-47
2023/01/01 08:38:42;;;;;;;;;;;;;;;2.82;86.76;96819.19;5095791;28;1063;-48
2023/01/01 08:41:08;;;;;;;;;;;;;;;2.82;87.31;96815.69;5077863;28;1107;-50
2023/01/01 08:43:34;;;;;;;;;;;;;;;2.94;87.33;96820.41;5095382;28;1087;-49
2023/01/01 08:46:00;;;;;;;;;;;;;;;3.02;86.74;96822.69;5095938;28;1000;-49
2023/01/01 08:48:26;;;;;;;;;;;;;;;3.01;86.66;96818.31;5092223;28;1327;-49
2023/01/01 08:50:53;;;;;;;;;;;;;;;3.11;85.35;96809.88;5074519;28;1262;-49
2023/01/01 08:53:19;;;;;;;;;;;;;;;3.25;84.76;96817.13;5075254;28;1148;-50
2023/01/01 08:55:54;;;;;;;;;;;;;;;3.35;84.23;96801.66;5075190;28;1995;-47
2023/01/01 08:58:20;;;;;;;;;;;;;;;3.28;86.18;96800.25;5075371;28;969;-48
2023/01/01 09:00:46;;;;;;;;;;;;;;;3.41;85.64;96805.78;5075081;28;1073;-48
2023/01/01 09:03:12;;;;;;;;;;;;;;;4.00;84.05;96806.31;5074905;28;1154;-48
2023/01/01 09:05:38;;;;;;;;;;;;;;;4.26;82.77;96800.47;5074962;28;1591;-48
2023/01/01 09:08:04;;;;;;;;;;;;;;;4.49;81.10;96804.53;5074954;28;1071;-48
2023/01/01 09:10:30;;;;;;;;;;;;;;;4.38;81.56;96806.06;5074637;28;1253;-48
2023/01/01 09:12:56;;;;;;;;;;;;;;;4.62;80.31;96796.78;5074871;28;982;-48
2023/01/01 09:15:22;;;;;;;;;;;;;;;5.00;79.26;96796.44;5074955;28;955;-48
2023/01/01 09:17:49;;;;;;;;;;;;;;;5.28;78.32;96794.88;5074726;28;1902;-48
2023/01/01 09:20:15;;;;;;;;;;;;;;;5.68;75.89;96784.59;5074602;28;1093;-48
2023/01/01 09:22:41;;;;;;;;;;;;;;;5.94;75.40;96788.34;5074606;28;1063;-48
2023/01/01 09:25:07;;;;;;;;;;;;;;;6.19;73.87;96785.06;5074072;28;1586;-48
2023/01/01 09:27:33;;;;;;;;;;;;;;;6.61;72.69;96779.84;5074510;28;1024;-49
2023/01/01 09:29:59;;;;;;;;;;;;;;;6.72;72.74;96776.50;5074640;28;1168;-48
2023/01/01 09:32:25;;;;;;;;;;;;;;;7.12;71.77;96782.78;5074553;28;1111;-48
2023/01/01 09:34:51;;;;;;;;;;;;;;;7.29;70.58;96773.69;5074533;28;1003;-48
2023/01/01 09:37:17;;;;;;;;;;;;;;;7.48;69.74;96770.66;5074166;28;2003;-48
2023/01/01 09:39:44;;;;;;;;;;;;;;;7.88;68.75;96762.63;5074406;28;1053;-48
2023/01/01 09:42:12;;;;;;;;;;;;;;;8.27;67.01;96766.16;5073705;28;1378;-48
2023/01/01 09:45:00;;;;;;;;;;;;;;;8.08;67.16;96753.28;5074383;28;1208;-48
2023/01/01 09:47:33;;;;;;;;;;;;;;;8.48;65.89;96754.97;5074102;28;1037;-48
2023/01/01 09:50:20;;;;;;;;;;;;;;;8.74;66.28;96756.63;5074078;28;1053;-48
2023/01/01 09:52:57;;;;;;;;;;;;;;;8.79;67.06;96751.81;5073967;28;1311;-48
2023/01/01 09:55:41;;;;;;;;;;;;;;;8.90;67.48;96750.19;5073322;28;1071;-48
2023/01/01 09:58:09;;;;;;;;;;;;;;;9.22;66.04;96746.97;5074023;28;1448;-48
2023/01/01 10:00:36;;;;;;;;;;;;;;;9.64;65.56;96742.91;5073555;28;1020;-48
2023/01/01 10:03:02;;;;;;;;;;;;;;;9.76;64.61;96735.78;5073706;28;1104;-48
2023/01/01 10:05:31;;;;;;;;;;;;;;;9.58;65.37;96730.88;5073879;28;1009;-48
2023/01/01 10:08:10;;;;;;;;;;;;;;;9.29;66.54;96727.69;5073735;28;1086;-48
2023/01/01 10:10:48;;;;;;;;;;;;;;;9.35;67.18;96731.72;5073566;28;1040;-48
2023/01/01 10:13:14;;;;;;;;;;;;;;;9.83;65.84;96723.66;5073763;28;1033;-48
2023/01/01 10:15:48;;;;;;;;;;;;;;;9.83;65.71;96720.97;5073840;28;1922;-48
2023/01/01 10:18:20;;;;;;;;;;;;;;;10.09;65.33;96713.63;5073738;28;1063;-48
2023/01/01 10:20:54;;;;;;;;;;;;;;;9.92;65.38;96717.59;5073595;28;1053;-48
2023/01/01 10:23:39;;;;;;;;;;;;;;;10.03;65.13;96707.88;5073098;28;1601;-48
2023/01/01 10:26:13;;;;;;;;;;;;;;;10.22;65.14;96708.13;5073625;28;973;-48
2023/01/01 10:28:48;;;;;;;;;;;;;;;10.20;65.14;96703.91;5073813;28;987;-48
2023/01/01 10:31:16;;;;;;;;;;;;;;;10.40;64.67;96702.38;5073329;28;1026;-48
2023/01/01 10:33:44;;;;;;;;;;;;;;;10.22;64.38;96700.13;5073469;28;1554;-47
2023/01/01 10:36:12;;;;;;;;;;;;;;;10.24;64.89;96700.00;5073506;28;1991;-48
2023/01/01 10:38:39;;;;;;;;;;;;;;;10.45;64.43;96686.78;5073356;28;1194;-48
2023/01/01 10:41:09;;;;;;;;;;;;;;;10.69;63.62;96686.63;5073411;28;1092;-48
2023/01/01 10:43:35;;;;;;;;;;;;;;;10.64;63.45;96686.16;5073414;28;1039;-48
2023/01/01 10:46:02;;;;;;;;;;;;;;;10.80;63.11;96672.41;5073330;28;1116;-48
2023/01/01 10:48:29;;;;;;;;;;;;;;;11.10;62.87;96674.38;5073272;28;1066;-48
2023/01/01 10:50:58;;;;;;;;;;;;;;;11.01;62.47;96667.09;5055283;28;1119;-48
2023/01/01 10:53:24;;;;;;;;;;;;;;;10.72;63.23;96663.16;5073516;28;969;-48
2023/01/01 10:56:01;;;;;;;;;;;;;;;10.85;63.59;96656.78;5073404;28;1989;-48
2023/01/01 10:58:30;;;;;;;;;;;;;;;11.01;63.27;96659.09;5073415;28;991;-48
2023/01/01 11:00:57;;;;;;;;;;;;;;;11.19;61.82;96651.34;5073030;28;1111;-48
2023/01/01 11:03:23;;;;;;;;;;;;;;;11.33;61.12;96651.03;5072984;28;1133;-48
2023/01/01 11:06:00;;;;;;;;;;;;;;;11.36;60.87;96648.06;5075141;28;1561;-48
2023/01/01 11:08:28;;;;;;;;;;;;;;;11.42;60.95;96641.34;5077079;28;938;-48
2023/01/01 11:10:56;;;;;;;;;;;;;;;11.27;61.70;96635.50;5076767;28;1079;-48
2023/01/01 11:13:22;;;;;;;;;;;;;;;11.23;60.96;96634.91;5077035;28;1095;-48
2023/01/01 11:15:48;;;;;;;;;;;;;;;11.43;61.19;96625.16;5076888;28;1997;-48
2023/01/01 11:18:16;;;;;;;;;;;;;;;11.56;60.88;96624.13;5076820;28;1016;-48
2023/01/01 11:20:42;;;;;;;;;;;;;;;11.93;60.17;96621.81;5076648;28;1729;-48
2023/01/01 11:23:18;;;;;;;;;;;;;;;11.94;58.85;96618.16;5076547;28;1455;-48
2023/01/01 11:25:57;;;;;;;;;;;;;;;11.92;59.48;96620.13;5076948;28;1046;-48
2023/01/01 11:28:25;;;;;;;;;;;;;;;11.65;60.44;96607.28;5076543;28;1098;-47
2023/01/01 11:31:16;;;;;;;;;;;;;;;11.44;60.84;96602.78;5076503;28;1177;-48
2023/01/01 11:33:53;;;;;;;;;;;;;;;11.82;60.25;96603.97;5066740;28;1878;-48
2023/01/01 11:36:24;;;;;;;;;;;;;;;12.13;59.24;96601.31;5076592;28;1906;-48
2023/01/01 11:39:04;;;;;;;;;;;;;;;12.16;58.36;96595.69;5076549;28;1083;-48
2023/01/01 11:41:41;;;;;;;;;;;;;;;11.86;59.14;96604.56;5076208;28;1220;-48
2023/01/01 11:44:10;;;;;;;;;;;;;;;11.81;59.31;96591.53;5076756;28;1072;-48
2023/01/01 11:46:38;;;;;;;;;;;;;;;11.89;58.99;96588.19;5076568;28;978;-48
2023/01/01 11:49:12;;;;;;;;;;;;;;;12.22;58.01;96594.31;5076539;28;1061;-47
2023/01/01 11:51:38;;;;;;;;;;;;;;;12.46;57.51;96586.75;5076036;28;1083;-48
2023/01/01 11:54:21;;;;;;;;;;;;;;;12.68;56.83;96585.66;5076604;28;1097;-47
2023/01/01 11:56:49;;;;;;;;;;;;;;;12.63;56.21;96581.69;5075288;28;1905;-48
2023/01/01 11:59:19;;;;;;;;;;;;;;;12.69;55.98;96584.66;5076454;28;1106;-48
2023/01/01 12:01:51;;;;;;;;;;;;;;;12.48;56.94;96578.53;5091050;28;1195;-48
2023/01/01 12:04:24;;;;;;;;;;;;;;;12.58;56.85;96576.75;5076008;28;1073;-48
2023/01/01 12:06:53;;;;;;;;;;;;;;;12.65;56.75;96577.03;5076195;28;1146;-47
2023/01/01 12:09:26;;;;;;;;;;;;;;;12.60;57.14;96582.81;5076188;28;1064;-48
2023/01/01 12:12:30;;;;;;;;;;;;;;;12.62;56.28;96578.16;5076029;28;1519;-48
2023/01/01 12:15:03;;;;;;;;;;;;;;;12.42;57.70;96571.06;4994162;28;1334;-47
2023/01/01 12:17:41;;;;;;;;;;;;;;;12.43;57.20;96570.91;4993724;28;1914;-48
2023/01/01 12:20:10;;;;;;;;;;;;;;;12.50;57.32;96565.84;5043336;28;976;-48
2023/01/01 12:22:36;;;;;;;;;;;;;;;12.33;57.39;96559.34;5075853;28;1201;-48
2023/01/01 12:25:04;;;;;;;;;;;;;;;12.33;58.25;96563.81;5090672;28;1201;-48
2023/01/01 12:27:59;;;;;;;;;;;;;;;12.34;57.73;96561.00;5075704;28;995;-48
2023/01/01 12:30:37;;;;;;;;;;;;;;;12.25;58.00;96567.19;5058650;28;1304;-47
2023/01/01 12:33:03;;;;;;;;;;;;;;;12.34;57.79;96562.84;5075415;28;1080;-48
2023/01/01 12:35:48;;;;;;;;;;;;;;;12.30;58.19;96560.44;5075558;28;1112;-48
2023/01/01 12:38:26;;;;;;;;;;;;;;;12.30;58.20;96554.22;5075855;28;962;-48
2023/01/01 12:40:55;;;;;;;;;;;;;;;12.24;57.70;96552.94;5075748;28;1056;-48
2023/01/01 12:43:26;;;;;;;;;;;;;;;12.26;58.39;96542.09;5075232;28;1079;-48
2023/01/01 12:45:58;;;;;;;;;;;;;;;12.24;57.95;96542.22;5075451;28;1002;-47
2023/01/01 12:48:24;;;;;;;;;;;;;;;12.19;58.07;96532.91;5075348;28;1181;-47
2023/01/01 12:50:50;;;;;;;;;;;;;;;12.16;57.54;96547.44;5075355;28;1859;-47
2023/01/01 12:53:34;;;;;;;;;;;;;;;12.09;58.20;96541.75;5075075;28;1024;-48
2023/01/01 12:56:23;;;;;;;;;;;;;;;11.97;58.82;96537.50;5074860;28;1985;-48
2023/01/01 12:58:50;;;;;;;;;;;;;;;11.85;59.57;96544.72;5075169;28;1091;-48
2023/01/01 13:01:21;;;;;;;;;;;;;;;11.80;60.10;96547.00;5075030;28;1216;-49
2023/01/01 13:03:47;;;;;;;;;;;;;;;11.78;61.06;96543.59;5074872;28;1075;-48
2023/01/01 13:06:16;;;;;;;;;;;;;;;11.80;62.27;96535.41;5075082;28;1837;-48
2023/01/01 13:08:43;;;;;;;;;;;;;;;11.82;62.03;96542.34;5074983;28;984;-48
2023/01/01 13:11:11;;;;;;;;;;;;;;;11.78;61.80;96540.03;5074864;28;1045;-47
2023/01/01 13:13:37;;;;;;;;;;;;;;;11.85;62.21;96555.44;5074469;28;1033;-48
2023/01/01 13:16:03;;;;;;;;;;;;;;;11.86;60.88;96553.66;5074936;28;1983;-48
2023/01/01 13:18:33;;;;;;;;;;;;;;;11.76;61.43;96555.41;5074887;28;1135;-47
2023/01/01 13:21:04;;;;;;;;;;;;;;;11.69;60.78;96549.75;5074594;28;1095;-48
2023/01/01 13:23:30;;;;;;;;;;;;;;;11.61;61.46;96550.44;5073917;28;1224;-48